createdAt,value
2018-07-20T00:00:03.031Z,95.39
2018-07-20T00:02:33.167Z,95.63
2018-07-20T00:05:03.463Z,95.70
2018-07-20T00:07:33.610Z,95.51
2018-07-20T00:10:03.924Z,95.65
2018-07-20T00:12:34.572Z,95.86
2018-07-20T00:15:05.330Z,95.94
2018-07-20T00:17:35.638Z,95.82
2018-07-20T00:20:06.625Z,95.73
2018-07-20T00:22:36.781Z,95.25
2018-07-20T00:25:07.119Z,95.11
2018-07-20T00:27:37.438Z,94.83
2018-07-20T00:30:08.203Z,94.32
2018-07-20T00:32:38.919Z,94.60
2018-07-20T00:35:10.021Z,94.51
2018-07-20T00:37:40.349Z,94.37
2018-07-20T00:40:10.553Z,95.08
2018-07-20T00:42:40.899Z,94.28
2018-07-20T00:45:11.764Z,95.16
2018-07-20T00:47:42.490Z,95.27
2018-07-20T00:50:12.978Z,94.55
2018-07-20T00:52:43.236Z,94.83
2018-07-20T00:55:13.668Z,94.49
2018-07-20T00:57:44.623Z,94.40
2018-07-20T01:00:14.977Z,95.26
2018-07-20T01:02:45.892Z,94.97
2018-07-20T01:05:16.483Z,95.51
2018-07-20T01:07:47.433Z,95.87
2018-07-20T01:10:17.827Z,95.81
2018-07-20T01:12:48.221Z,95.64
2018-07-20T01:15:18.494Z,95.12
2018-07-20T01:17:49.541Z,95.34
2018-07-20T01:20:19.921Z,96.39
2018-07-20T01:22:50.300Z,96.36
2018-07-20T01:25:21.118Z,95.65
2018-07-20T01:27:51.709Z,95.38
2018-07-20T01:30:22.062Z,95.43
2018-07-20T01:32:52.305Z,94.99
2018-07-20T01:35:23.188Z,94.72
2018-07-20T01:37:54.131Z,94.73
2018-07-20T01:40:24.402Z,94.25
2018-07-20T01:42:55.547Z,94.28
2018-07-20T01:45:26.166Z,95.31
2018-07-20T01:47:56.494Z,95.36
2018-07-20T01:50:27.022Z,95.69
2018-07-20T01:52:57.320Z,95.13
2018-07-20T01:55:27.785Z,95.58
2018-07-20T01:57:58.080Z,95.23
2018-07-20T02:00:28.319Z,95.93
2018-07-20T02:02:58.872Z,95.72
2018-07-20T02:05:29.137Z,95.81
2018-07-20T02:07:59.721Z,96.12
2018-07-20T02:10:30.024Z,95.79
2018-07-20T02:13:00.330Z,95.46
2018-07-20T02:15:30.551Z,95.87
2018-07-20T02:18:00.907Z,95.74
2018-07-20T02:20:31.850Z,95.71
2018-07-20T02:23:02.008Z,96.63
2018-07-20T02:25:38.170Z,96.26
2018-07-20T02:28:10.958Z,95.91
2018-07-20T02:30:43.757Z,96.75
2018-07-20T02:33:17.369Z,95.98
2018-07-20T02:35:48.342Z,95.73
2018-07-20T02:38:20.099Z,95.64
2018-07-20T02:40:51.080Z,96.38
2018-07-20T02:43:21.753Z,96.08
2018-07-20T02:45:52.119Z,96.34
2018-07-20T02:48:22.799Z,95.48
2018-07-20T02:50:53.081Z,96.18
2018-07-20T02:53:24.741Z,95.90
2018-07-20T02:55:55.682Z,96.49
2018-07-20T02:58:26.304Z,96.77
2018-07-20T03:00:56.617Z,96.58
2018-07-20T03:03:27.773Z,96.29
2018-07-20T03:05:58.067Z,96.33
2018-07-20T03:08:29.168Z,96.57
2018-07-20T03:10:59.434Z,96.12
2018-07-20T03:13:29.924Z,96.51
2018-07-20T03:16:00.185Z,96.26
2018-07-20T03:18:30.388Z,96.42
2018-07-20T03:21:00.920Z,96.84
2018-07-20T03:23:31.476Z,96.51
2018-07-20T03:26:01.675Z,96.41
2018-07-20T03:28:32.029Z,96.62
2018-07-20T03:31:02.218Z,96.69
2018-07-20T03:33:32.485Z,95.88
2018-07-20T03:36:03.580Z,96.13
2018-07-20T03:38:33.839Z,95.73
2018-07-20T03:41:04.178Z,96.06
2018-07-20T03:43:34.497Z,95.81
2018-07-20T03:46:04.841Z,96.00
2018-07-20T03:48:35.164Z,96.36
2018-07-20T03:51:06.048Z,95.71
2018-07-20T03:53:36.942Z,94.25
2018-07-20T03:56:07.237Z,94.64
2018-07-20T03:58:37.502Z,94.03
2018-07-20T04:01:07.761Z,93.38
2018-07-20T04:03:38.785Z,92.70
2018-07-20T04:06:09.324Z,92.46
2018-07-20T04:08:39.857Z,91.34
2018-07-20T04:11:10.213Z,90.81
2018-07-20T04:13:40.818Z,89.46
2018-07-20T04:16:11.089Z,88.33
2018-07-20T04:18:42.481Z,87.99
2018-07-20T04:21:12.870Z,86.25
2018-07-20T04:23:43.164Z,86.30
2018-07-20T04:26:13.576Z,85.41
2018-07-20T04:28:45.473Z,82.62
2018-07-20T04:31:15.816Z,82.69
2018-07-20T04:33:46.077Z,82.80
2018-07-20T04:36:17.267Z,81.66
2018-07-20T04:38:47.757Z,80.46
2018-07-20T04:41:18.090Z,79.83
2018-07-20T04:43:48.361Z,78.82
2018-07-20T04:46:18.987Z,77.61
2018-07-20T04:48:49.635Z,75.96
2018-07-20T04:51:20.692Z,77.24
2018-07-20T04:53:51.085Z,76.72
2018-07-20T04:56:21.278Z,76.31
2018-07-20T04:58:51.560Z,76.47
2018-07-20T05:01:22.150Z,75.56
2018-07-20T05:03:52.570Z,74.05
2018-07-20T05:06:23.056Z,73.77
2018-07-20T05:08:53.707Z,72.85
2018-07-20T05:11:24.424Z,73.20
2018-07-20T05:13:55.282Z,72.57
2018-07-20T05:16:25.521Z,72.44
2018-07-20T05:18:55.786Z,71.81
2018-07-20T05:21:27.096Z,70.32
2018-07-20T05:23:58.131Z,66.87
2018-07-20T05:26:28.490Z,65.29
2018-07-20T05:28:58.848Z,64.76
2018-07-20T05:31:30.040Z,65.36
2018-07-20T05:34:00.289Z,62.09
2018-07-20T05:36:31.159Z,58.05
2018-07-20T05:39:02.075Z,53.81
2018-07-20T05:41:32.637Z,48.08
2018-07-20T05:44:03.547Z,46.38
2018-07-20T05:46:34.525Z,42.83
2018-07-20T05:49:05.406Z,39.77
2018-07-20T05:51:36.334Z,37.26
2018-07-20T05:54:07.291Z,37.62
2018-07-20T05:56:38.235Z,35.51
2018-07-20T05:59:09.278Z,36.24
2018-07-20T06:01:40.222Z,34.38
2018-07-20T06:04:11.037Z,35.78
2018-07-20T06:06:42.241Z,35.94
2018-07-20T06:09:13.575Z,32.81
2018-07-20T06:11:44.539Z,33.03
2018-07-20T06:14:16.457Z,32.14
2018-07-20T06:16:47.567Z,29.49
2018-07-20T06:19:18.506Z,30.03
2018-07-20T06:21:50.241Z,29.21
2018-07-20T06:24:22.318Z,28.57
2018-07-20T06:26:53.190Z,27.46
2018-07-20T06:29:23.809Z,27.70
2018-07-20T06:31:54.685Z,27.89
2018-07-20T06:34:25.477Z,27.54
2018-07-20T06:36:56.279Z,27.43
2018-07-20T06:39:26.610Z,27.31
2018-07-20T06:41:57.407Z,27.20
2018-07-20T06:44:28.214Z,26.87
2018-07-20T06:46:59.434Z,25.70
2018-07-20T06:49:30.537Z,25.01
2018-07-20T06:52:01.731Z,24.58
2018-07-20T06:54:32.904Z,24.08
2018-07-20T06:57:03.541Z,23.89
2018-07-20T06:59:34.081Z,23.75
2018-07-20T07:02:04.709Z,22.30
2018-07-20T07:04:35.341Z,21.45
2018-07-20T07:07:06.189Z,21.68
2018-07-20T07:09:36.905Z,21.14
2018-07-20T07:12:07.629Z,21.62
2018-07-20T07:14:37.958Z,22.01
2018-07-20T07:17:08.630Z,22.16
2018-07-20T07:19:39.258Z,22.04
2018-07-20T07:22:10.009Z,20.77
2018-07-20T07:24:41.340Z,21.27
2018-07-20T07:27:11.777Z,20.64
2018-07-20T07:29:42.129Z,19.97
2018-07-20T07:32:12.611Z,20.42
2018-07-20T07:34:42.990Z,20.98
2018-07-20T07:37:13.421Z,19.92
2018-07-20T07:39:44.565Z,20.17
2018-07-20T07:42:15.060Z,19.12
2018-07-20T07:44:45.540Z,21.14
2018-07-20T07:47:15.988Z,21.16
2018-07-20T07:49:46.393Z,20.36
2018-07-20T07:52:16.867Z,20.79
2018-07-20T07:54:47.289Z,20.15
2018-07-20T07:57:17.934Z,19.18
2018-07-20T07:59:48.387Z,18.14
2018-07-20T08:02:18.814Z,19.07
2018-07-20T08:04:48.933Z,18.79
2018-07-20T08:07:19.485Z,18.44
2018-07-20T08:09:50.150Z,17.86
2018-07-20T08:12:20.794Z,18.80
2018-07-20T08:14:50.849Z,18.37
2018-07-20T08:17:21.253Z,18.82
2018-07-20T08:19:51.629Z,18.53
2018-07-20T08:22:22.023Z,18.46
2018-07-20T08:24:52.417Z,18.70
2018-07-20T08:27:22.725Z,19.56
2018-07-20T08:29:52.900Z,20.20
2018-07-20T08:32:23.288Z,20.48
2018-07-20T08:34:53.709Z,20.59
2018-07-20T08:37:24.169Z,20.82
2018-07-20T08:39:54.610Z,20.37
2018-07-20T08:42:25.181Z,20.43
2018-07-20T08:44:56.105Z,19.78
2018-07-20T08:47:26.946Z,18.72
2018-07-20T08:49:57.580Z,19.63
2018-07-20T08:52:28.140Z,19.64
2018-07-20T08:54:58.417Z,20.17
2018-07-20T08:57:28.877Z,19.75
2018-07-20T08:59:59.265Z,19.99
2018-07-20T09:02:29.966Z,20.66
2018-07-20T09:05:00.602Z,21.44
2018-07-20T09:07:31.417Z,20.72
2018-07-20T09:10:01.713Z,20.60
2018-07-20T09:12:32.569Z,20.48
2018-07-20T09:15:03.484Z,21.70
2018-07-20T09:17:33.923Z,22.57
2018-07-20T09:20:04.989Z,23.33
2018-07-20T09:22:35.735Z,25.65
2018-07-20T09:25:06.363Z,25.96
2018-07-20T09:27:37.181Z,26.46
2018-07-20T09:30:08.853Z,28.00
2018-07-20T09:32:39.421Z,28.94
2018-07-20T09:35:10.158Z,28.71
2018-07-20T09:37:40.997Z,29.52
2018-07-20T09:40:11.906Z,29.03
2018-07-20T09:42:42.988Z,29.61
2018-07-20T09:45:13.687Z,30.16
2018-07-20T09:47:44.454Z,31.15
2018-07-20T09:50:15.021Z,31.94
2018-07-20T09:52:45.824Z,32.92
2018-07-20T09:55:17.265Z,34.40
2018-07-20T09:57:47.813Z,34.12
2018-07-20T10:00:23.880Z,33.61
2018-07-20T10:02:54.696Z,34.53
2018-07-20T10:05:25.245Z,34.15
2018-07-20T10:07:55.836Z,34.36
2018-07-20T10:10:26.875Z,33.89
2018-07-20T10:12:57.360Z,33.66
2018-07-20T10:15:28.262Z,33.66
2018-07-20T10:17:59.063Z,32.64
2018-07-20T10:20:30.075Z,33.69
2018-07-20T10:23:01.943Z,33.63
2018-07-20T10:25:33.315Z,33.13
2018-07-20T10:28:04.693Z,32.62
2018-07-20T10:30:35.631Z,32.33
2018-07-20T10:33:07.623Z,33.99
2018-07-20T10:35:38.745Z,35.34
2018-07-20T10:38:10.350Z,35.40
2018-07-20T10:40:41.054Z,35.51
2018-07-20T10:43:11.850Z,36.05
2018-07-20T10:45:42.851Z,35.23
2018-07-20T10:48:13.574Z,36.20
2018-07-20T10:50:44.516Z,36.29
2018-07-20T10:53:15.181Z,36.98
2018-07-20T10:55:46.105Z,37.25
2018-07-20T10:58:16.611Z,36.91
2018-07-20T11:00:47.542Z,37.64
2018-07-20T11:03:19.156Z,38.05
2018-07-20T11:05:49.997Z,35.68
2018-07-20T11:08:20.499Z,35.57
2018-07-20T11:10:51.542Z,36.13
2018-07-20T11:13:22.313Z,35.91
2018-07-20T11:15:53.345Z,35.93
2018-07-20T11:18:24.267Z,37.02
2018-07-20T11:20:55.138Z,37.36
2018-07-20T11:23:25.962Z,36.58
2018-07-20T11:25:56.865Z,36.03
2018-07-20T11:28:27.773Z,37.56
2018-07-20T11:30:58.600Z,37.03
2018-07-20T11:33:29.955Z,37.84
2018-07-20T11:36:00.897Z,37.87
2018-07-20T11:38:31.807Z,37.75
2018-07-20T11:41:02.587Z,37.31
2018-07-20T11:43:33.372Z,37.22
2018-07-20T11:46:04.428Z,37.16
2018-07-20T11:48:35.401Z,36.15
2018-07-20T11:51:06.294Z,35.82
2018-07-20T11:53:37.081Z,37.07
2018-07-20T11:56:07.635Z,37.35
2018-07-20T11:58:38.339Z,36.26
2018-07-20T12:01:08.960Z,37.39
2018-07-20T12:03:39.729Z,37.18
2018-07-20T12:06:10.640Z,37.17
2018-07-20T12:08:41.206Z,37.69
2018-07-20T12:11:12.175Z,38.38
2018-07-20T12:13:42.677Z,35.20
2018-07-20T12:16:13.241Z,35.68
2018-07-20T12:18:43.745Z,36.92
2018-07-20T12:21:14.673Z,36.62
2018-07-20T12:23:45.314Z,36.69
2018-07-20T12:26:16.270Z,35.27
2018-07-20T12:28:47.074Z,35.81
2018-07-20T12:31:17.950Z,36.08
2018-07-20T12:33:48.685Z,37.04
2018-07-20T12:36:19.677Z,36.33
2018-07-20T12:38:50.842Z,38.25
2018-07-20T12:41:21.708Z,36.39
2018-07-20T12:43:52.625Z,35.18
2018-07-20T12:46:23.213Z,35.03
2018-07-20T12:48:53.959Z,35.97
2018-07-20T12:51:25.345Z,36.62
2018-07-20T12:53:55.879Z,36.20
2018-07-20T12:56:27.024Z,35.10
2018-07-20T12:58:57.679Z,36.95
2018-07-20T13:01:29.045Z,36.09
2018-07-20T13:03:59.542Z,36.66
2018-07-20T13:06:30.476Z,36.78
2018-07-20T13:09:00.970Z,37.32
2018-07-20T13:11:31.986Z,37.43
2018-07-20T13:14:03.443Z,38.71
2018-07-20T13:16:34.623Z,36.62
2018-07-20T13:19:05.602Z,38.07
2018-07-20T13:21:36.340Z,36.13
2018-07-20T13:24:07.183Z,35.12
2018-07-20T13:26:39.587Z,36.90
2018-07-20T13:29:11.415Z,36.43
2018-07-20T13:31:42.089Z,37.49
2018-07-20T13:34:12.722Z,36.96
2018-07-20T13:36:43.612Z,37.28
2018-07-20T13:39:14.149Z,35.01
2018-07-20T13:41:45.134Z,35.56
2018-07-20T13:44:15.765Z,37.31
2018-07-20T13:46:46.994Z,36.54
2018-07-20T13:49:17.659Z,37.67
2018-07-20T13:51:48.217Z,35.89
2018-07-20T13:54:18.889Z,36.78
2018-07-20T13:56:50.477Z,35.77
2018-07-20T13:59:21.597Z,37.07
2018-07-20T14:01:52.098Z,35.81
2018-07-20T14:04:22.661Z,35.37
2018-07-20T14:06:53.253Z,35.65
2018-07-20T14:09:23.998Z,37.05
2018-07-20T14:11:54.662Z,37.10
2018-07-20T14:14:25.224Z,36.43
2018-07-20T14:16:55.738Z,37.21
2018-07-20T14:19:26.563Z,37.75
2018-07-20T14:21:57.161Z,36.72
2018-07-20T14:24:27.762Z,36.82
2018-07-20T14:26:58.342Z,37.05
2018-07-20T14:29:29.344Z,36.20
2018-07-20T14:31:59.986Z,35.85
2018-07-20T14:34:31.593Z,36.57
2018-07-20T14:37:02.193Z,36.11
2018-07-20T14:39:32.627Z,37.48
2018-07-20T14:42:03.087Z,37.80
2018-07-20T14:44:33.736Z,37.28
2018-07-20T14:47:04.376Z,37.06
2018-07-20T14:49:34.925Z,37.32
2018-07-20T14:52:05.637Z,37.25
2018-07-20T14:54:36.173Z,37.67
2018-07-20T14:57:06.800Z,36.24
2018-07-20T14:59:37.464Z,37.03
2018-07-20T15:02:08.204Z,37.97
2018-07-20T15:04:38.917Z,36.74
2018-07-20T15:07:09.548Z,36.86
2018-07-20T15:09:40.112Z,37.30
2018-07-20T15:12:11.031Z,36.10
2018-07-20T15:14:41.644Z,38.44
2018-07-20T15:17:12.490Z,39.27
2018-07-20T15:19:43.129Z,37.62
2018-07-20T15:22:13.712Z,38.67
2018-07-20T15:24:44.945Z,37.51
2018-07-20T15:27:15.585Z,36.81
2018-07-20T15:29:46.288Z,37.47
2018-07-20T15:32:16.832Z,37.60
2018-07-20T15:34:47.489Z,38.01
2018-07-20T15:37:18.634Z,37.89
2018-07-20T15:39:49.268Z,37.61
2018-07-20T15:42:19.905Z,38.14
2018-07-20T15:51:01.566Z,38.87
2018-07-20T15:53:36.251Z,38.29
2018-07-20T15:56:03.077Z,38.63
2018-07-20T16:23:43.208Z,39.97
2018-07-20T16:26:17.579Z,39.53
2018-07-20T16:32:03.431Z,39.93
2018-07-20T16:34:47.714Z,38.78
2018-07-20T16:37:20.215Z,40.38
2018-07-20T16:43:04.743Z,39.78
2018-07-20T16:45:40.326Z,40.30
2018-07-20T16:48:34.468Z,39.76
2018-07-20T16:51:17.503Z,40.19
2018-07-20T16:53:51.103Z,41.17
2018-07-20T16:56:24.560Z,40.49
2018-07-20T16:58:57.440Z,41.42
2018-07-20T17:01:40.939Z,40.30
2018-07-20T17:07:12.523Z,41.31
2018-07-20T17:09:56.203Z,41.28
2018-07-20T17:12:42.242Z,42.08
2018-07-20T17:15:15.526Z,41.69
2018-07-20T17:18:01.539Z,42.46
2018-07-20T17:20:34.087Z,42.22
2018-07-20T17:23:08.048Z,43.44
2018-07-20T17:25:48.867Z,42.52
2018-07-20T17:28:21.952Z,44.05
2018-07-20T17:31:06.036Z,43.84
2018-07-20T17:33:38.190Z,44.72
2018-07-20T17:36:33.148Z,45.51
2018-07-20T17:39:20.610Z,45.33
2018-07-20T17:41:53.626Z,45.65
2018-07-20T17:44:38.164Z,45.90
2018-07-20T17:47:29.355Z,46.36
2018-07-20T17:53:00.397Z,47.56
2018-07-20T17:55:33.156Z,47.28
2018-07-20T17:58:07.641Z,47.64
2018-07-20T18:00:39.601Z,48.50
2018-07-20T18:03:28.726Z,49.22
2018-07-20T18:06:00.792Z,48.45
2018-07-20T18:08:33.889Z,49.35
2018-07-20T18:11:06.334Z,49.52
2018-07-20T18:13:39.064Z,50.64
2018-07-20T18:16:12.102Z,51.53
2018-07-20T18:18:43.932Z,52.43
2018-07-20T18:21:16.276Z,52.66
2018-07-20T18:23:48.592Z,51.63
2018-07-20T18:26:36.874Z,51.78
2018-07-20T18:32:17.989Z,52.34
2018-07-20T18:37:50.818Z,52.89
2018-07-20T18:40:20.629Z,53.87
2018-07-20T18:42:50.463Z,53.96
2018-07-20T18:45:20.921Z,54.09
2018-07-20T18:47:57.190Z,55.25
2018-07-20T18:50:35.815Z,55.48
2018-07-20T18:53:09.447Z,56.90
2018-07-20T18:55:42.115Z,57.57
2018-07-20T18:58:20.002Z,57.86
2018-07-20T19:00:56.242Z,58.15
2018-07-20T19:06:35.776Z,58.80
2018-07-20T19:09:23.662Z,59.18
2018-07-20T19:12:06.804Z,60.06
2018-07-20T19:14:50.260Z,60.11
2018-07-20T19:17:22.711Z,59.77
2018-07-20T19:20:12.559Z,61.42
2018-07-20T19:22:48.601Z,61.30
2018-07-20T19:25:23.038Z,61.82
2018-07-20T19:27:56.826Z,61.68
2018-07-20T19:33:30.057Z,64.73
2018-07-20T19:36:04.005Z,66.18
2018-07-20T19:38:38.215Z,66.99
2018-07-20T19:41:11.316Z,67.72
2018-07-20T19:43:45.219Z,67.06
2018-07-20T19:46:17.867Z,67.22
2018-07-20T19:48:51.686Z,67.22
2018-07-20T19:51:24.399Z,68.22
2018-07-20T19:53:57.861Z,69.88
2018-07-20T19:56:31.459Z,70.99
2018-07-20T19:59:04.748Z,72.19
2018-07-20T20:01:36.932Z,73.25
2018-07-20T20:04:08.323Z,74.14
2018-07-20T20:06:58.080Z,75.20
2018-07-20T20:09:31.837Z,75.49
2018-07-20T20:12:03.442Z,76.44
2018-07-20T20:14:50.604Z,75.46
2018-07-20T20:17:32.831Z,75.03
2018-07-20T20:25:58.809Z,76.75
2018-07-20T20:28:30.929Z,76.40
2018-07-20T20:31:17.551Z,77.54
2018-07-20T20:34:02.012Z,78.36
2018-07-20T20:36:44.354Z,78.77
2018-07-20T20:39:18.157Z,79.52
2018-07-20T20:42:00.533Z,79.91
2018-07-20T20:44:33.148Z,78.81
2018-07-20T20:50:04.350Z,79.60
2018-07-20T20:52:46.704Z,80.49
2018-07-20T20:55:39.099Z,80.35
2018-07-20T20:58:28.204Z,80.46
2018-07-20T21:00:59.995Z,81.49
2018-07-20T21:03:31.711Z,81.48
2018-07-20T21:06:03.768Z,81.67
2018-07-20T21:08:43.192Z,82.37
2018-07-20T21:11:13.420Z,82.89
2018-07-20T21:16:49.774Z,84.51
2018-07-20T21:19:34.257Z,84.67
2018-07-20T21:22:06.389Z,84.87
2018-07-20T21:24:38.231Z,84.51
2018-07-20T21:27:10.465Z,85.10
2018-07-20T21:29:41.699Z,84.92
2018-07-20T21:32:13.627Z,84.93
2018-07-20T21:34:45.600Z,85.05
2018-07-20T21:37:19.205Z,85.11
2018-07-20T21:39:51.229Z,85.26
2018-07-20T21:42:30.850Z,84.67
2018-07-20T21:45:00.738Z,84.20
2018-07-20T21:47:30.635Z,84.27
2018-07-20T21:50:00.516Z,85.14
2018-07-20T21:52:30.438Z,85.57
2018-07-20T21:58:08.623Z,86.17
2018-07-20T22:00:40.655Z,86.25
2018-07-20T22:03:10.556Z,87.54
2018-07-20T22:05:40.418Z,87.76
2018-07-20T22:08:10.377Z,88.07
2018-07-20T22:10:40.230Z,88.28
2018-07-20T22:13:10.161Z,88.83
2018-07-20T22:15:40.260Z,88.94
2018-07-20T22:18:10.188Z,88.99
2018-07-20T22:20:40.274Z,89.66
2018-07-20T22:23:10.160Z,89.76
2018-07-20T22:25:40.034Z,90.12
2018-07-20T22:28:09.876Z,90.35
2018-07-20T22:30:39.718Z,90.41
2018-07-20T22:33:09.627Z,90.28
2018-07-20T22:35:41.515Z,90.19
2018-07-20T22:38:11.429Z,90.62
2018-07-20T22:40:41.322Z,90.78
2018-07-20T22:43:11.171Z,91.15
2018-07-20T22:45:41.098Z,91.18
2018-07-20T22:48:11.090Z,91.74
2018-07-20T22:50:40.985Z,91.74
2018-07-20T22:53:10.928Z,91.78
2018-07-20T22:55:40.810Z,92.01
2018-07-20T22:58:10.702Z,91.98
2018-07-20T23:00:40.685Z,91.84
2018-07-20T23:03:10.523Z,91.88
2018-07-20T23:05:40.369Z,92.06
2018-07-20T23:08:28.201Z,91.91
2018-07-20T23:10:58.115Z,92.13
2018-07-20T23:13:28.025Z,92.12
2018-07-20T23:15:57.987Z,92.03
2018-07-20T23:18:28.321Z,92.39
2018-07-20T23:24:18.598Z,92.75
2018-07-20T23:26:48.534Z,92.73
2018-07-20T23:29:18.423Z,92.92
2018-07-20T23:34:42.219Z,93.47
2018-07-20T23:37:16.536Z,93.73
2018-07-20T23:45:42.262Z,93.30
2018-07-20T23:48:12.155Z,93.46
2018-07-20T23:50:42.031Z,93.41
2018-07-20T23:53:11.902Z,93.34
2018-07-20T23:55:41.777Z,91.32
2018-07-20T23:58:11.670Z,90.62
